sensor_id;sensor_type;location;lat;lon;timestamp;temperature;humidity
15143;DHT22;7672;50.834;6.286;2024-03-23T00:55:25;11.30;99.90
15143;DHT22;7672;50.834;6.286;2024-03-23T00:57:51;11.30;99.90
15143;DHT22;7672;50.834;6.286;2024-03-23T01:00:17;11.30;99.90
15143;DHT22;7672;50.834;6.286;2024-03-23T01:02:44;11.30;99.90
15143;DHT22;7672;50.834;6.286;2024-03-23T01:05:10;11.30;99.90
15143;DHT22;7672;50.834;6.286;2024-03-23T01:07:36;11.20;99.90
15143;DHT22;7672;50.834;6.286;2024-03-23T01:10:02;11.20;99.90
15143;DHT22;7672;50.834;6.286;2024-03-23T01:12:28;11.20;99.90
15143;DHT22;7672;50.834;6.286;2024-03-23T01:14:54;11.20;99.90
15143;DHT22;7672;50.834;6.286;2024-03-23T01:17:20;11.20;99.90
15143;DHT22;7672;50.834;6.286;2024-03-23T01:19:46;11.20;99.90
15143;DHT22;7672;50.834;6.286;2024-03-23T01:22:12;11.20;99.90
15143;DHT22;7672;50.834;6.286;2024-03-23T01:24:38;11.10;99.90
15143;DHT22;7672;50.834;6.286;2024-03-23T01:27:04;11.10;99.90
15143;DHT22;7672;50.834;6.286;2024-03-23T01:29:30;11.10;99.90
15143;DHT22;7672;50.834;6.286;2024-03-23T01:31:56;11.10;99.90
15143;DHT22;7672;50.834;6.286;2024-03-23T01:34:22;11.10;99.90
15143;DHT22;7672;50.834;6.286;2024-03-23T01:36:51;11.10;99.90
15143;DHT22;7672;50.834;6.286;2024-03-23T01:39:17;11.00;99.90
15143;DHT22;7672;50.834;6.286;2024-03-23T01:41:43;11.00;99.90
15143;DHT22;7672;50.834;6.286;2024-03-23T01:44:09;10.90;99.90
15143;DHT22;7672;50.834;6.286;2024-03-23T01:46:39;10.90;99.90
15143;DHT22;7672;50.834;6.286;2024-03-23T01:49:08;10.80;99.90
15143;DHT22;7672;50.834;6.286;2024-03-23T01:51:35;10.80;99.90
15143;DHT22;7672;50.834;6.286;2024-03-23T01:54:03;10.70;99.90
15143;DHT22;7672;50.834;6.286;2024-03-23T01:56:31;10.60;99.90
15143;DHT22;7672;50.834;6.286;2024-03-23T01:59:04;10.60;99.90
15143;DHT22;7672;50.834;6.286;2024-03-23T02:01:40;10.50;99.90
15143;DHT22;7672;50.834;6.286;2024-03-23T02:04:07;10.40;99.90
15143;DHT22;7672;50.834;6.286;2024-03-23T02:06:34;10.40;99.90
15143;DHT22;7672;50.834;6.286;2024-03-23T02:09:00;10.30;99.90
15143;DHT22;7672;50.834;6.286;2024-03-23T02:11:27;10.30;99.90
15143;DHT22;7672;50.834;6.286;2024-03-23T02:13:53;10.30;99.90
15143;DHT22;7672;50.834;6.286;2024-03-23T02:16:19;10.20;99.90
15143;DHT22;7672;50.834;6.286;2024-03-23T02:18:45;10.20;99.90
15143;DHT22;7672;50.834;6.286;2024-03-23T02:21:11;10.20;99.90
15143;DHT22;7672;50.834;6.286;2024-03-23T02:23:37;10.10;99.90
15143;DHT22;7672;50.834;6.286;2024-03-23T02:26:03;10.10;99.90
15143;DHT22;7672;50.834;6.286;2024-03-23T02:28:29;10.10;99.90
15143;DHT22;7672;50.834;6.286;2024-03-23T02:30:55;10.00;99.90
15143;DHT22;7672;50.834;6.286;2024-03-23T02:33:21;10.10;99.90
15143;DHT22;7672;50.834;6.286;2024-03-23T02:35:48;10.10;99.90
15143;DHT22;7672;50.834;6.286;2024-03-23T02:38:15;10.00;99.90
15143;DHT22;7672;50.834;6.286;2024-03-23T02:40:41;10.00;99.90
15143;DHT22;7672;50.834;6.286;2024-03-23T02:43:07;10.00;99.90
15143;DHT22;7672;50.834;6.286;2024-03-23T02:45:33;10.10;99.90
15143;DHT22;7672;50.834;6.286;2024-03-23T02:47:59;10.00;99.90
15143;DHT22;7672;50.834;6.286;2024-03-23T02:50:25;10.10;99.90
15143;DHT22;7672;50.834;6.286;2024-03-23T02:52:51;10.10;99.90
15143;DHT22;7672;50.834;6.286;2024-03-23T02:55:17;10.10;99.90
15143;DHT22;7672;50.834;6.286;2024-03-23T02:57:44;10.00;99.90
15143;DHT22;7672;50.834;6.286;2024-03-23T03:00:10;10.10;99.90
15143;DHT22;7672;50.834;6.286;2024-03-23T03:02:37;10.10;99.90
15143;DHT22;7672;50.834;6.286;2024-03-23T03:05:04;10.10;99.90
15143;DHT22;7672;50.834;6.286;2024-03-23T03:07:32;10.10;99.90
15143;DHT22;7672;50.834;6.286;2024-03-23T03:09:58;10.10;99.90
15143;DHT22;7672;50.834;6.286;2024-03-23T03:12:24;10.00;99.90
15143;DHT22;7672;50.834;6.286;2024-03-23T03:14:50;10.10;99.90
15143;DHT22;7672;50.834;6.286;2024-03-23T03:17:16;10.00;99.90
15143;DHT22;7672;50.834;6.286;2024-03-23T03:19:42;10.00;99.90
15143;DHT22;7672;50.834;6.286;2024-03-23T03:22:08;10.00;99.90
15143;DHT22;7672;50.834;6.286;2024-03-23T03:24:34;10.00;99.90
15143;DHT22;7672;50.834;6.286;2024-03-23T03:27:00;10.00;99.90
15143;DHT22;7672;50.834;6.286;2024-03-23T03:29:26;10.00;99.90
15143;DHT22;7672;50.834;6.286;2024-03-23T03:31:59;10.00;99.90
15143;DHT22;7672;50.834;6.286;2024-03-23T03:34:25;10.00;99.90
15143;DHT22;7672;50.834;6.286;2024-03-23T03:36:51;10.00;99.90
15143;DHT22;7672;50.834;6.286;2024-03-23T03:39:18;10.00;99.90
15143;DHT22;7672;50.834;6.286;2024-03-23T03:41:44;10.00;99.90
15143;DHT22;7672;50.834;6.286;2024-03-23T03:44:10;10.00;99.90
15143;DHT22;7672;50.834;6.286;2024-03-23T03:46:36;10.00;99.90
15143;DHT22;7672;50.834;6.286;2024-03-23T03:49:02;10.00;99.90
15143;DHT22;7672;50.834;6.286;2024-03-23T03:51:28;10.00;99.90
15143;DHT22;7672;50.834;6.286;2024-03-23T03:53:54;10.00;99.90
15143;DHT22;7672;50.834;6.286;2024-03-23T03:56:20;10.00;99.90
15143;DHT22;7672;50.834;6.286;2024-03-23T03:58:48;10.00;99.90
15143;DHT22;7672;50.834;6.286;2024-03-23T04:01:15;10.00;99.90
15143;DHT22;7672;50.834;6.286;2024-03-23T04:03:42;10.00;99.90
15143;DHT22;7672;50.834;6.286;2024-03-23T04:06:10;10.00;99.90
15143;DHT22;7672;50.834;6.286;2024-03-23T04:08:36;10.00;99.90
15143;DHT22;7672;50.834;6.286;2024-03-23T04:11:02;9.90;99.90
15143;DHT22;7672;50.834;6.286;2024-03-23T04:13:28;10.00;99.90
15143;DHT22;7672;50.834;6.286;2024-03-23T04:15:57;9.90;99.90
15143;DHT22;7672;50.834;6.286;2024-03-23T04:18:23;9.90;99.90
15143;DHT22;7672;50.834;6.286;2024-03-23T04:20:49;9.90;99.90
15143;DHT22;7672;50.834;6.286;2024-03-23T04:23:15;9.90;99.90
15143;DHT22;7672;50.834;6.286;2024-03-23T04:25:41;9.90;99.90
15143;DHT22;7672;50.834;6.286;2024-03-23T04:28:07;9.80;99.90
15143;DHT22;7672;50.834;6.286;2024-03-23T04:30:34;9.80;99.90
15143;DHT22;7672;50.834;6.286;2024-03-23T04:33:00;9.70;99.90
15143;DHT22;7672;50.834;6.286;2024-03-23T04:35:26;9.70;99.90
15143;DHT22;7672;50.834;6.286;2024-03-23T04:37:53;9.70;99.90
15143;DHT22;7672;50.834;6.286;2024-03-23T04:40:21;9.70;99.90
15143;DHT22;7672;50.834;6.286;2024-03-23T04:42:47;9.70;99.90
15143;DHT22;7672;50.834;6.286;2024-03-23T04:45:14;9.70;99.90
15143;DHT22;7672;50.834;6.286;2024-03-23T04:47:40;9.60;99.90
15143;DHT22;7672;50.834;6.286;2024-03-23T04:50:06;9.60;99.90
15143;DHT22;7672;50.834;6.286;2024-03-23T04:52:33;9.60;99.90
15143;DHT22;7672;50.834;6.286;2024-03-23T04:54:59;9.60;99.90
15143;DHT22;7672;50.834;6.286;2024-03-23T04:57:25;9.60;99.90
15143;DHT22;7672;50.834;6.286;2024-03-23T04:59:51;9.50;99.90
15143;DHT22;7672;50.834;6.286;2024-03-23T05:02:17;9.50;99.90
15143;DHT22;7672;50.834;6.286;2024-03-23T05:04:43;9.50;99.90
15143;DHT22;7672;50.834;6.286;2024-03-23T05:07:09;9.50;99.90
15143;DHT22;7672;50.834;6.286;2024-03-23T05:09:35;9.50;99.90
15143;DHT22;7672;50.834;6.286;2024-03-23T05:12:01;9.50;99.90
15143;DHT22;7672;50.834;6.286;2024-03-23T05:14:28;9.50;99.90
15143;DHT22;7672;50.834;6.286;2024-03-23T05:16:54;9.40;99.90
15143;DHT22;7672;50.834;6.286;2024-03-23T05:19:21;9.40;99.90
15143;DHT22;7672;50.834;6.286;2024-03-23T05:21:48;9.40;99.90
15143;DHT22;7672;50.834;6.286;2024-03-23T05:24:14;9.40;99.90
15143;DHT22;7672;50.834;6.286;2024-03-23T05:26:40;9.40;99.90
15143;DHT22;7672;50.834;6.286;2024-03-23T05:29:06;9.40;99.90
15143;DHT22;7672;50.834;6.286;2024-03-23T05:31:36;9.30;99.90
15143;DHT22;7672;50.834;6.286;2024-03-23T05:34:03;9.40;99.90
15143;DHT22;7672;50.834;6.286;2024-03-23T05:36:29;9.40;99.90
15143;DHT22;7672;50.834;6.286;2024-03-23T05:38:55;9.30;99.90
15143;DHT22;7672;50.834;6.286;2024-03-23T05:41:21;9.30;99.90
15143;DHT22;7672;50.834;6.286;2024-03-23T05:43:50;9.30;99.90
15143;DHT22;7672;50.834;6.286;2024-03-23T05:46:16;9.30;99.90
15143;DHT22;7672;50.834;6.286;2024-03-23T05:48:43;9.30;99.90
15143;DHT22;7672;50.834;6.286;2024-03-23T05:51:09;9.30;99.90
15143;DHT22;7672;50.834;6.286;2024-03-23T05:53:38;9.20;99.90
15143;DHT22;7672;50.834;6.286;2024-03-23T05:56:04;9.20;99.90
15143;DHT22;7672;50.834;6.286;2024-03-23T05:58:31;9.20;99.90
15143;DHT22;7672;50.834;6.286;2024-03-23T06:01:00;9.10;99.90
15143;DHT22;7672;50.834;6.286;2024-03-23T06:03:28;9.10;99.90
15143;DHT22;7672;50.834;6.286;2024-03-23T06:05:55;9.10;99.90
15143;DHT22;7672;50.834;6.286;2024-03-23T06:08:22;9.10;99.90
15143;DHT22;7672;50.834;6.286;2024-03-23T06:10:48;9.10;99.90
15143;DHT22;7672;50.834;6.286;2024-03-23T06:13:16;9.10;99.90
15143;DHT22;7672;50.834;6.286;2024-03-23T06:15:43;9.10;99.90
15143;DHT22;7672;50.834;6.286;2024-03-23T06:18:09;9.10;99.90
15143;DHT22;7672;50.834;6.286;2024-03-23T06:20:35;9.20;99.90
15143;DHT22;7672;50.834;6.286;2024-03-23T06:23:01;9.20;99.90
15143;DHT22;7672;50.834;6.286;2024-03-23T06:25:28;9.40;99.90
15143;DHT22;7672;50.834;6.286;2024-03-23T06:27:55;9.50;99.90
15143;DHT22;7672;50.834;6.286;2024-03-23T06:30:21;9.60;99.90
15143;DHT22;7672;50.834;6.286;2024-03-23T06:32:47;9.70;99.90
15143;DHT22;7672;50.834;6.286;2024-03-23T06:35:13;9.90;99.90
15143;DHT22;7672;50.834;6.286;2024-03-23T06:37:39;10.10;99.90
15143;DHT22;7672;50.834;6.286;2024-03-23T06:40:07;10.30;99.90
15143;DHT22;7672;50.834;6.286;2024-03-23T06:42:36;10.50;99.90
15143;DHT22;7672;50.834;6.286;2024-03-23T06:45:03;10.80;99.90
15143;DHT22;7672;50.834;6.286;2024-03-23T06:47:30;11.20;99.90
15143;DHT22;7672;50.834;6.286;2024-03-23T06:49:57;11.60;99.90
15143;DHT22;7672;50.834;6.286;2024-03-23T06:52:23;12.00;99.90
15143;DHT22;7672;50.834;6.286;2024-03-23T06:54:49;12.40;99.90
15143;DHT22;7672;50.834;6.286;2024-03-23T06:57:15;12.90;99.90
15143;DHT22;7672;50.834;6.286;2024-03-23T06:59:41;13.30;99.90
15143;DHT22;7672;50.834;6.286;2024-03-23T07:02:07;13.80;99.90
15143;DHT22;7672;50.834;6.286;2024-03-23T07:04:35;14.30;99.90
15143;DHT22;7672;50.834;6.286;2024-03-23T07:07:02;14.80;99.90
15143;DHT22;7672;50.834;6.286;2024-03-23T07:09:29;15.30;99.90
15143;DHT22;7672;50.834;6.286;2024-03-23T07:11:58;15.80;99.90
15143;DHT22;7672;50.834;6.286;2024-03-23T07:14:25;16.20;99.90
15143;DHT22;7672;50.834;6.286;2024-03-23T07:16:51;16.40;99.90
15143;DHT22;7672;50.834;6.286;2024-03-23T07:19:18;16.40;99.90
15143;DHT22;7672;50.834;6.286;2024-03-23T07:21:44;16.20;99.90
15143;DHT22;7672;50.834;6.286;2024-03-23T07:24:11;16.00;99.90
15143;DHT22;7672;50.834;6.286;2024-03-23T07:26:37;15.70;99.90
15143;DHT22;7672;50.834;6.286;2024-03-23T07:29:05;15.30;99.90
15143;DHT22;7672;50.834;6.286;2024-03-23T07:31:32;15.00;99.90
15143;DHT22;7672;50.834;6.286;2024-03-23T07:33:58;14.60;99.90
15143;DHT22;7672;50.834;6.286;2024-03-23T07:36:24;14.30;99.90
15143;DHT22;7672;50.834;6.286;2024-03-23T07:38:51;14.10;99.90
15143;DHT22;7672;50.834;6.286;2024-03-23T07:41:19;14.00;99.90
15143;DHT22;7672;50.834;6.286;2024-03-23T07:43:47;14.00;99.90
15143;DHT22;7672;50.834;6.286;2024-03-23T07:46:15;14.30;99.90
15143;DHT22;7672;50.834;6.286;2024-03-23T07:48:41;14.60;99.90
15143;DHT22;7672;50.834;6.286;2024-03-23T07:51:10;14.90;99.90
15143;DHT22;7672;50.834;6.286;2024-03-23T07:53:44;15.10;99.90
15143;DHT22;7672;50.834;6.286;2024-03-23T07:56:11;15.20;99.90
15143;DHT22;7672;50.834;6.286;2024-03-23T07:58:38;15.30;99.90
15143;DHT22;7672;50.834;6.286;2024-03-23T08:01:05;15.30;99.90
15143;DHT22;7672;50.834;6.286;2024-03-23T08:03:35;15.30;99.90
15143;DHT22;7672;50.834;6.286;2024-03-23T08:08:47;15.50;99.90
15143;DHT22;7672;50.834;6.286;2024-03-23T08:11:14;15.60;99.90
15143;DHT22;7672;50.834;6.286;2024-03-23T08:13:42;15.80;99.90
15143;DHT22;7672;50.834;6.286;2024-03-23T08:16:10;15.90;99.90
15143;DHT22;7672;50.834;6.286;2024-03-23T08:18:37;15.90;99.90
15143;DHT22;7672;50.834;6.286;2024-03-23T08:21:05;15.90;99.90
15143;DHT22;7672;50.834;6.286;2024-03-23T08:23:33;15.90;99.90
15143;DHT22;7672;50.834;6.286;2024-03-23T08:26:03;15.90;99.90
15143;DHT22;7672;50.834;6.286;2024-03-23T08:28:34;15.60;99.90
15143;DHT22;7672;50.834;6.286;2024-03-23T08:31:03;15.50;99.90
15143;DHT22;7672;50.834;6.286;2024-03-23T08:33:34;15.50;99.90
15143;DHT22;7672;50.834;6.286;2024-03-23T08:36:02;15.50;99.90
15143;DHT22;7672;50.834;6.286;2024-03-23T08:38:30;15.50;99.90
15143;DHT22;7672;50.834;6.286;2024-03-23T08:43:33;15.80;99.90
15143;DHT22;7672;50.834;6.286;2024-03-23T08:46:12;16.10;99.90
15143;DHT22;7672;50.834;6.286;2024-03-23T08:48:44;16.40;99.90
15143;DHT22;7672;50.834;6.286;2024-03-23T08:51:13;16.80;99.90
15143;DHT22;7672;50.834;6.286;2024-03-23T08:53:40;17.00;99.90
15143;DHT22;7672;50.834;6.286;2024-03-23T08:56:07;17.20;99.90
15143;DHT22;7672;50.834;6.286;2024-03-23T08:58:34;17.40;99.90
15143;DHT22;7672;50.834;6.286;2024-03-23T09:01:12;17.60;99.90
15143;DHT22;7672;50.834;6.286;2024-03-23T09:03:41;17.70;99.90
15143;DHT22;7672;50.834;6.286;2024-03-23T09:06:13;17.80;99.90
15143;DHT22;7672;50.834;6.286;2024-03-23T09:08:40;17.90;99.90
15143;DHT22;7672;50.834;6.286;2024-03-23T09:11:10;17.90;99.90
15143;DHT22;7672;50.834;6.286;2024-03-23T09:13:38;17.90;99.90
15143;DHT22;7672;50.834;6.286;2024-03-23T09:16:05;17.80;99.90
15143;DHT22;7672;50.834;6.286;2024-03-23T09:18:33;17.70;99.90
15143;DHT22;7672;50.834;6.286;2024-03-23T09:21:01;17.60;99.90
15143;DHT22;7672;50.834;6.286;2024-03-23T09:23:37;17.60;99.90
15143;DHT22;7672;50.834;6.286;2024-03-23T09:26:03;17.70;99.90
15143;DHT22;7672;50.834;6.286;2024-03-23T09:28:30;17.90;99.90
15143;DHT22;7672;50.834;6.286;2024-03-23T09:31:02;18.10;99.90
15143;DHT22;7672;50.834;6.286;2024-03-23T09:33:35;18.50;99.90
15143;DHT22;7672;50.834;6.286;2024-03-23T09:36:06;18.70;99.90
15143;DHT22;7672;50.834;6.286;2024-03-23T09:38:33;18.90;99.90
15143;DHT22;7672;50.834;6.286;2024-03-23T09:41:00;19.00;99.90
15143;DHT22;7672;50.834;6.286;2024-03-23T09:43:26;18.90;99.90
15143;DHT22;7672;50.834;6.286;2024-03-23T09:45:52;18.80;99.90
15143;DHT22;7672;50.834;6.286;2024-03-23T09:48:19;18.60;99.90
15143;DHT22;7672;50.834;6.286;2024-03-23T09:50:46;18.30;99.90
15143;DHT22;7672;50.834;6.286;2024-03-23T09:53:13;18.00;99.90
15143;DHT22;7672;50.834;6.286;2024-03-23T09:55:41;17.70;99.90
15143;DHT22;7672;50.834;6.286;2024-03-23T09:58:12;17.40;99.90
15143;DHT22;7672;50.834;6.286;2024-03-23T10:00:39;17.10;99.90
15143;DHT22;7672;50.834;6.286;2024-03-23T10:03:05;16.80;99.90
15143;DHT22;7672;50.834;6.286;2024-03-23T10:05:32;16.70;99.90
15143;DHT22;7672;50.834;6.286;2024-03-23T10:10:44;16.70;99.90
15143;DHT22;7672;50.834;6.286;2024-03-23T10:13:23;17.00;99.90
15143;DHT22;7672;50.834;6.286;2024-03-23T10:15:58;17.20;99.90
15143;DHT22;7672;50.834;6.286;2024-03-23T10:18:25;17.70;99.90
15143;DHT22;7672;50.834;6.286;2024-03-23T10:23:37;18.80;99.90
15143;DHT22;7672;50.834;6.286;2024-03-23T10:26:21;19.50;99.90
15143;DHT22;7672;50.834;6.286;2024-03-23T10:28:56;20.10;99.90
15143;DHT22;7672;50.834;6.286;2024-03-23T10:31:37;20.60;99.90
15143;DHT22;7672;50.834;6.286;2024-03-23T10:34:07;20.80;99.90
15143;DHT22;7672;50.834;6.286;2024-03-23T10:36:34;21.10;99.90
15143;DHT22;7672;50.834;6.286;2024-03-23T10:39:05;21.10;99.90
15143;DHT22;7672;50.834;6.286;2024-03-23T10:41:33;21.10;99.90
15143;DHT22;7672;50.834;6.286;2024-03-23T10:44:01;20.90;99.90
15143;DHT22;7672;50.834;6.286;2024-03-23T10:46:28;20.60;99.90
15143;DHT22;7672;50.834;6.286;2024-03-23T10:48:54;20.30;99.90
15143;DHT22;7672;50.834;6.286;2024-03-23T10:51:20;19.90;99.90
15143;DHT22;7672;50.834;6.286;2024-03-23T10:53:47;19.60;99.90
15143;DHT22;7672;50.834;6.286;2024-03-23T10:56:15;19.30;99.90
15143;DHT22;7672;50.834;6.286;2024-03-23T10:58:45;19.00;99.90
15143;DHT22;7672;50.834;6.286;2024-03-23T11:01:14;18.60;99.90
15143;DHT22;7672;50.834;6.286;2024-03-23T11:03:45;18.50;99.90
15143;DHT22;7672;50.834;6.286;2024-03-23T11:17:39;19.90;99.90
15143;DHT22;7672;50.834;6.286;2024-03-23T11:20:07;20.10;99.90
15143;DHT22;7672;50.834;6.286;2024-03-23T11:22:42;20.20;99.90
15143;DHT22;7672;50.834;6.286;2024-03-23T11:25:23;20.40;99.90
15143;DHT22;7672;50.834;6.286;2024-03-23T11:27:51;20.50;99.90
15143;DHT22;7672;50.834;6.286;2024-03-23T11:30:20;20.60;99.90
15143;DHT22;7672;50.834;6.286;2024-03-23T11:32:55;20.80;99.90
15143;DHT22;7672;50.834;6.286;2024-03-23T11:35:33;21.00;99.90
15143;DHT22;7672;50.834;6.286;2024-03-23T11:38:07;21.10;99.90
15143;DHT22;7672;50.834;6.286;2024-03-23T11:40:34;21.20;99.90
15143;DHT22;7672;50.834;6.286;2024-03-23T11:43:07;21.20;99.90
15143;DHT22;7672;50.834;6.286;2024-03-23T11:45:36;21.20;99.90
15143;DHT22;7672;50.834;6.286;2024-03-23T11:50:43;21.30;99.90
15143;DHT22;7672;50.834;6.286;2024-03-23T11:53:19;21.40;99.90
15143;DHT22;7672;50.834;6.286;2024-03-23T11:55:56;21.40;99.90
15143;DHT22;7672;50.834;6.286;2024-03-23T11:58:24;21.30;99.90
15143;DHT22;7672;50.834;6.286;2024-03-23T12:01:04;21.20;99.90
15143;DHT22;7672;50.834;6.286;2024-03-23T12:03:31;21.10;99.90
15143;DHT22;7672;50.834;6.286;2024-03-23T12:06:01;21.00;99.90
15143;DHT22;7672;50.834;6.286;2024-03-23T12:11:17;20.80;99.90
15143;DHT22;7672;50.834;6.286;2024-03-23T12:13:44;20.60;99.90
15143;DHT22;7672;50.834;6.286;2024-03-23T12:16:13;20.60;99.90
15143;DHT22;7672;50.834;6.286;2024-03-23T12:18:41;20.40;99.90
15143;DHT22;7672;50.834;6.286;2024-03-23T12:21:08;20.30;99.90
15143;DHT22;7672;50.834;6.286;2024-03-23T12:23:35;20.00;99.90
15143;DHT22;7672;50.834;6.286;2024-03-23T12:26:04;19.60;99.90
15143;DHT22;7672;50.834;6.286;2024-03-23T12:28:30;19.30;99.90
15143;DHT22;7672;50.834;6.286;2024-03-23T12:30:56;18.80;99.90
15143;DHT22;7672;50.834;6.286;2024-03-23T12:33:22;18.40;99.90
15143;DHT22;7672;50.834;6.286;2024-03-23T12:35:52;18.10;99.90
15143;DHT22;7672;50.834;6.286;2024-03-23T12:38:19;17.90;99.90
15143;DHT22;7672;50.834;6.286;2024-03-23T12:40:49;17.70;99.90
15143;DHT22;7672;50.834;6.286;2024-03-23T12:43:16;17.60;99.90
15143;DHT22;7672;50.834;6.286;2024-03-23T12:45:49;17.50;99.90
15143;DHT22;7672;50.834;6.286;2024-03-23T12:48:16;17.40;99.90
15143;DHT22;7672;50.834;6.286;2024-03-23T12:50:42;17.30;99.90
15143;DHT22;7672;50.834;6.286;2024-03-23T12:53:08;17.20;99.90
15143;DHT22;7672;50.834;6.286;2024-03-23T12:55:35;17.10;99.90
15143;DHT22;7672;50.834;6.286;2024-03-23T12:58:01;17.00;99.90
15143;DHT22;7672;50.834;6.286;2024-03-23T13:00:28;16.90;99.90
15143;DHT22;7672;50.834;6.286;2024-03-23T13:02:54;17.00;99.90
15143;DHT22;7672;50.834;6.286;2024-03-23T13:05:20;16.80;99.90
15143;DHT22;7672;50.834;6.286;2024-03-23T13:07:46;16.80;99.90
15143;DHT22;7672;50.834;6.286;2024-03-23T13:10:12;16.70;99.90
15143;DHT22;7672;50.834;6.286;2024-03-23T13:12:38;17.00;99.90
15143;DHT22;7672;50.834;6.286;2024-03-23T13:15:06;16.60;99.90
15143;DHT22;7672;50.834;6.286;2024-03-23T13:17:32;16.50;99.90
15143;DHT22;7672;50.834;6.286;2024-03-23T13:19:58;16.40;99.90
15143;DHT22;7672;50.834;6.286;2024-03-23T13:22:24;16.40;99.90
15143;DHT22;7672;50.834;6.286;2024-03-23T13:24:50;16.40;99.90
15143;DHT22;7672;50.834;6.286;2024-03-23T13:27:16;16.30;99.90
15143;DHT22;7672;50.834;6.286;2024-03-23T13:29:42;16.10;99.90
15143;DHT22;7672;50.834;6.286;2024-03-23T13:32:08;15.90;99.90
15143;DHT22;7672;50.834;6.286;2024-03-23T13:34:35;15.70;99.90
15143;DHT22;7672;50.834;6.286;2024-03-23T13:37:01;15.50;99.90
15143;DHT22;7672;50.834;6.286;2024-03-23T13:39:28;15.40;99.90
15143;DHT22;7672;50.834;6.286;2024-03-23T13:41:54;15.20;99.90
15143;DHT22;7672;50.834;6.286;2024-03-23T13:44:21;15.00;99.90
15143;DHT22;7672;50.834;6.286;2024-03-23T13:46:48;14.90;99.90
15143;DHT22;7672;50.834;6.286;2024-03-23T13:51:56;14.80;99.90
15143;DHT22;7672;50.834;6.286;2024-03-23T13:54:26;14.60;99.90
15143;DHT22;7672;50.834;6.286;2024-03-23T13:56:54;14.60;99.90
15143;DHT22;7672;50.834;6.286;2024-03-23T13:59:22;14.50;99.90
15143;DHT22;7672;50.834;6.286;2024-03-23T14:01:49;14.50;99.90
15143;DHT22;7672;50.834;6.286;2024-03-23T14:04:17;14.40;99.90
15143;DHT22;7672;50.834;6.286;2024-03-23T14:06:45;14.40;99.90
15143;DHT22;7672;50.834;6.286;2024-03-23T14:09:12;14.40;99.90
15143;DHT22;7672;50.834;6.286;2024-03-23T14:11:41;14.40;99.90
15143;DHT22;7672;50.834;6.286;2024-03-23T14:14:09;14.40;99.90
15143;DHT22;7672;50.834;6.286;2024-03-23T14:16:35;14.40;99.90
15143;DHT22;7672;50.834;6.286;2024-03-23T14:19:01;14.40;99.90
15143;DHT22;7672;50.834;6.286;2024-03-23T14:21:27;14.40;99.90
15143;DHT22;7672;50.834;6.286;2024-03-23T14:23:53;14.50;99.90
15143;DHT22;7672;50.834;6.286;2024-03-23T14:26:20;14.40;99.90
15143;DHT22;7672;50.834;6.286;2024-03-23T14:28:47;14.40;99.90
15143;DHT22;7672;50.834;6.286;2024-03-23T14:31:13;14.20;99.90
15143;DHT22;7672;50.834;6.286;2024-03-23T14:33:39;14.10;99.90
15143;DHT22;7672;50.834;6.286;2024-03-23T14:36:17;13.90;99.90
15143;DHT22;7672;50.834;6.286;2024-03-23T14:38:49;13.80;99.90
15143;DHT22;7672;50.834;6.286;2024-03-23T14:41:15;13.50;99.90
15143;DHT22;7672;50.834;6.286;2024-03-23T14:43:41;13.50;99.90
15143;DHT22;7672;50.834;6.286;2024-03-23T14:46:13;13.30;99.90
15143;DHT22;7672;50.834;6.286;2024-03-23T14:48:41;13.10;99.90
15143;DHT22;7672;50.834;6.286;2024-03-23T14:51:09;13.00;99.90
15143;DHT22;7672;50.834;6.286;2024-03-23T14:53:38;12.90;99.90
15143;DHT22;7672;50.834;6.286;2024-03-23T14:56:06;12.90;99.90
15143;DHT22;7672;50.834;6.286;2024-03-23T14:58:34;12.80;99.90
15143;DHT22;7672;50.834;6.286;2024-03-23T15:01:04;12.70;99.90
15143;DHT22;7672;50.834;6.286;2024-03-23T15:03:35;12.60;99.90
15143;DHT22;7672;50.834;6.286;2024-03-23T15:06:01;12.50;99.90
15143;DHT22;7672;50.834;6.286;2024-03-23T15:08:28;12.50;99.90
15143;DHT22;7672;50.834;6.286;2024-03-23T15:10:55;12.50;99.90
15143;DHT22;7672;50.834;6.286;2024-03-23T15:13:24;12.50;99.90
15143;DHT22;7672;50.834;6.286;2024-03-23T15:15:50;12.40;99.90
15143;DHT22;7672;50.834;6.286;2024-03-23T15:18:18;12.50;99.90
15143;DHT22;7672;50.834;6.286;2024-03-23T15:20:55;12.50;99.90
15143;DHT22;7672;50.834;6.286;2024-03-23T15:23:22;12.40;99.90
15143;DHT22;7672;50.834;6.286;2024-03-23T15:25:57;12.40;99.90
15143;DHT22;7672;50.834;6.286;2024-03-23T15:28:27;12.40;99.90
15143;DHT22;7672;50.834;6.286;2024-03-23T15:31:10;12.40;99.90
15143;DHT22;7672;50.834;6.286;2024-03-23T15:33:36;12.40;99.90
15143;DHT22;7672;50.834;6.286;2024-03-23T15:36:03;12.40;99.90
15143;DHT22;7672;50.834;6.286;2024-03-23T15:38:31;12.40;99.90
15143;DHT22;7672;50.834;6.286;2024-03-23T15:40:59;12.30;99.90
15143;DHT22;7672;50.834;6.286;2024-03-23T15:43:25;12.20;99.90
15143;DHT22;7672;50.834;6.286;2024-03-23T15:46:00;12.10;99.90
15143;DHT22;7672;50.834;6.286;2024-03-23T15:48:27;12.00;99.90
15143;DHT22;7672;50.834;6.286;2024-03-23T15:50:58;11.90;99.90
15143;DHT22;7672;50.834;6.286;2024-03-23T15:53:26;11.80;99.90
15143;DHT22;7672;50.834;6.286;2024-03-23T15:55:54;11.70;99.90
15143;DHT22;7672;50.834;6.286;2024-03-23T15:58:28;11.60;99.90
15143;DHT22;7672;50.834;6.286;2024-03-23T16:00:55;11.60;99.90
15143;DHT22;7672;50.834;6.286;2024-03-23T16:03:30;11.60;99.90
15143;DHT22;7672;50.834;6.286;2024-03-23T16:06:02;11.50;99.90
15143;DHT22;7672;50.834;6.286;2024-03-23T16:08:30;11.50;99.90
15143;DHT22;7672;50.834;6.286;2024-03-23T16:11:01;11.50;99.90
15143;DHT22;7672;50.834;6.286;2024-03-23T16:13:35;11.40;99.90
15143;DHT22;7672;50.834;6.286;2024-03-23T16:16:02;11.50;99.90
15143;DHT22;7672;50.834;6.286;2024-03-23T16:18:33;11.50;99.90
15143;DHT22;7672;50.834;6.286;2024-03-23T16:21:01;11.50;99.90
15143;DHT22;7672;50.834;6.286;2024-03-23T16:23:29;11.60;99.90
15143;DHT22;7672;50.834;6.286;2024-03-23T16:25:56;11.60;99.90
15143;DHT22;7672;50.834;6.286;2024-03-23T16:28:30;11.60;99.90
15143;DHT22;7672;50.834;6.286;2024-03-23T16:31:04;11.60;99.90
15143;DHT22;7672;50.834;6.286;2024-03-23T16:33:36;11.60;99.90
15143;DHT22;7672;50.834;6.286;2024-03-23T16:36:10;11.50;99.90
15143;DHT22;7672;50.834;6.286;2024-03-23T16:38:41;11.50;99.90
15143;DHT22;7672;50.834;6.286;2024-03-23T16:41:09;11.50;99.90
15143;DHT22;7672;50.834;6.286;2024-03-23T16:43:39;11.40;99.90
15143;DHT22;7672;50.834;6.286;2024-03-23T16:46:07;11.40;99.90
15143;DHT22;7672;50.834;6.286;2024-03-23T16:48:40;11.30;99.90
15143;DHT22;7672;50.834;6.286;2024-03-23T16:51:08;11.30;99.90
15143;DHT22;7672;50.834;6.286;2024-03-23T16:53:35;11.30;99.90
15143;DHT22;7672;50.834;6.286;2024-03-23T16:56:04;11.20;99.90
15143;DHT22;7672;50.834;6.286;2024-03-23T16:58:37;11.20;99.90
15143;DHT22;7672;50.834;6.286;2024-03-23T17:01:10;11.10;99.90
15143;DHT22;7672;50.834;6.286;2024-03-23T17:03:51;11.20;99.90
15143;DHT22;7672;50.834;6.286;2024-03-23T17:06:19;11.20;99.90
15143;DHT22;7672;50.834;6.286;2024-03-23T17:08:46;11.20;99.90
15143;DHT22;7672;50.834;6.286;2024-03-23T17:11:13;11.10;99.90
15143;DHT22;7672;50.834;6.286;2024-03-23T17:13:39;11.10;99.90
15143;DHT22;7672;50.834;6.286;2024-03-23T17:16:05;11.10;99.90